Time;durP1;ratioP1;P1;durP2;ratioP2;P2;SDS_P1;SDS_P2;PMS_P1;PMS_P2;Temp;Humidity;BMP_temperature;BMP_pressure;BME280_temperature;BME280_humidity;BME280_pressure;Samples;Min_cycle;Max_cycle;Signal;HPM_P1;HPM_P2
2022/04/02 00:01:24;;;;;;;1.30;0.90;;;;;;;;;;5000481;28;20289;-76
2022/04/02 00:03:50;;;;;;;2.53;1.55;;;;;;;;;;5001959;28;20619;-76
2022/04/02 00:06:16;;;;;;;0.10;0.10;;;;;;;;;;5003960;28;20040;-77
2022/04/02 00:08:42;;;;;;;0.10;0.10;;;;;;;;;;5002881;28;20034;-76
2022/04/02 00:11:09;;;;;;;0.43;0.43;;;;;;;;;;5002932;28;20034;-76
2022/04/02 00:13:35;;;;;;;0.63;0.52;;;;;;;;;;5001895;28;20502;-76
2022/04/02 00:16:02;;;;;;;0.10;0.10;;;;;;;;;;5002472;28;20061;-76
2022/04/02 00:18:31;;;;;;;0.60;0.45;;;;;;;;;;5002490;28;20038;-76
2022/04/02 00:20:58;;;;;;;0.60;0.60;;;;;;;;;;4993664;28;20070;-76
2022/04/02 00:23:39;;;;;;;0.25;0.25;;;;;;;;;;4990649;28;20040;-77
2022/04/02 00:26:06;;;;;;;0.20;0.20;;;;;;;;;;4996844;28;20528;-77
2022/04/02 00:28:33;;;;;;;0.52;0.28;;;;;;;;;;5001418;28;20034;-77
2022/04/02 00:30:59;;;;;;;0.32;0.32;;;;;;;;;;5002691;28;20055;-77
2022/04/02 00:33:25;;;;;;;1.13;1.13;;;;;;;;;;5002324;28;20034;-77
2022/04/02 00:35:51;;;;;;;0.60;0.43;;;;;;;;;;5000572;28;20055;-78
2022/04/02 00:38:17;;;;;;;0.40;0.40;;;;;;;;;;5002683;28;20026;-78
2022/04/02 00:40:43;;;;;;;0.13;0.13;;;;;;;;;;5002194;28;20127;-79
2022/04/02 00:43:22;;;;;;;0.28;0.28;;;;;;;;;;5005801;28;20117;-78
2022/04/02 00:45:48;;;;;;;0.52;0.50;;;;;;;;;;5006131;28;20117;-78
2022/04/02 00:48:14;;;;;;;0.10;0.10;;;;;;;;;;5013228;28;20513;-77
2022/04/02 00:50:41;;;;;;;0.10;0.10;;;;;;;;;;5002848;28;20109;-77
2022/04/02 00:53:07;;;;;;;0.10;0.10;;;;;;;;;;5005933;28;20053;-78
2022/04/02 00:55:33;;;;;;;0.30;0.30;;;;;;;;;;5006034;28;20511;-81
2022/04/02 00:57:59;;;;;;;0.25;0.25;;;;;;;;;;5005266;28;20125;-80
2022/04/02 01:00:25;;;;;;;0.40;0.40;;;;;;;;;;5006631;28;20026;-80
2022/04/02 01:02:52;;;;;;;0.32;0.32;;;;;;;;;;5003432;28;20033;-80
2022/04/02 01:05:18;;;;;;;0.30;0.30;;;;;;;;;;5005578;28;20065;-80
2022/04/02 01:07:46;;;;;;;0.20;0.20;;;;;;;;;;5000577;28;20079;-80
2022/04/02 01:10:12;;;;;;;0.17;0.17;;;;;;;;;;4997553;28;20124;-80
2022/04/02 01:12:38;;;;;;;0.60;0.60;;;;;;;;;;5005662;28;20034;-80
2022/04/02 01:15:04;;;;;;;0.10;0.10;;;;;;;;;;5006338;28;20033;-80
2022/04/02 01:17:31;;;;;;;;;;;;;;;;;;5001453;28;20032;-80
2022/04/02 01:19:58;;;;;;;0.20;0.20;;;;;;;;;;5005852;28;19921;-80
2022/04/02 01:22:24;;;;;;;0.43;0.43;;;;;;;;;;5000876;28;20049;-80
2022/04/02 01:24:50;;;;;;;0.10;0.10;;;;;;;;;;4990547;28;20423;-80
2022/04/02 01:27:16;;;;;;;0.63;0.63;;;;;;;;;;5006088;28;20131;-80
2022/04/02 01:29:42;;;;;;;0.95;0.88;;;;;;;;;;5003875;28;20026;-78
2022/04/02 01:32:08;;;;;;;0.30;0.30;;;;;;;;;;5006139;28;20042;-79
2022/04/02 01:34:34;;;;;;;0.23;0.23;;;;;;;;;;5005291;28;20069;-79
2022/04/02 01:37:00;;;;;;;0.10;0.10;;;;;;;;;;5005709;28;20277;-79
2022/04/02 01:39:27;;;;;;;0.10;0.10;;;;;;;;;;5006134;28;20030;-79
2022/04/02 01:41:53;;;;;;;0.30;0.30;;;;;;;;;;5005356;28;20104;-79
2022/04/02 01:44:19;;;;;;;0.20;0.20;;;;;;;;;;5002252;28;20033;-78
2022/04/02 01:46:45;;;;;;;0.10;0.10;;;;;;;;;;5001060;28;20231;-78
2022/04/02 01:49:11;;;;;;;0.23;0.23;;;;;;;;;;5005500;28;20064;-78
2022/04/02 01:51:37;;;;;;;0.10;0.10;;;;;;;;;;5001125;28;20922;-78
2022/04/02 01:54:03;;;;;;;0.10;0.10;;;;;;;;;;5005575;28;20072;-78
2022/04/02 01:56:29;;;;;;;0.60;0.60;;;;;;;;;;5002696;28;20075;-78
2022/04/02 01:58:55;;;;;;;0.35;0.35;;;;;;;;;;5004838;28;20776;-77
2022/04/02 02:01:21;;;;;;;0.40;0.40;;;;;;;;;;4993669;28;20058;-78
2022/04/02 02:03:47;;;;;;;0.10;0.10;;;;;;;;;;5005255;28;20946;-78
2022/04/02 02:06:13;;;;;;;0.55;0.55;;;;;;;;;;5004929;28;20477;-80
2022/04/02 02:08:39;;;;;;;1.37;1.27;;;;;;;;;;5003307;28;20111;-78
2022/04/02 02:11:05;;;;;;;0.17;0.17;;;;;;;;;;5005442;28;20038;-79
2022/04/02 02:13:31;;;;;;;0.10;0.10;;;;;;;;;;5004691;28;20348;-78
2022/04/02 02:15:57;;;;;;;0.60;0.60;;;;;;;;;;5004942;28;20040;-79
2022/04/02 02:18:23;;;;;;;0.30;0.30;;;;;;;;;;5003857;28;20033;-79
2022/04/02 02:20:49;;;;;;;0.10;0.10;;;;;;;;;;5004921;28;20030;-79
2022/04/02 02:23:15;;;;;;;0.45;0.45;;;;;;;;;;5004627;28;20121;-79
2022/04/02 02:25:42;;;;;;;0.20;0.20;;;;;;;;;;5002640;28;20499;-78
2022/04/02 02:28:08;;;;;;;0.00;0.00;;;;;;;;;;5002868;28;20126;-78
2022/04/02 02:30:34;;;;;;;1.97;1.53;;;;;;;;;;5004724;28;20472;-79
2022/04/02 02:35:50;;;;;;;0.60;0.60;;;;;;;;;;5004279;28;20413;-79
2022/04/02 02:38:20;;;;;;;1.65;0.80;;;;;;;;;;5004508;28;20045;-79
2022/04/02 02:40:47;;;;;;;0.32;0.32;;;;;;;;;;5004074;28;20053;-79
2022/04/02 02:43:13;;;;;;;0.13;0.13;;;;;;;;;;5004425;28;20529;-79
2022/04/02 02:45:39;;;;;;;1.77;0.57;;;;;;;;;;5004407;28;20050;-79
2022/04/02 02:48:05;;;;;;;0.20;0.20;;;;;;;;;;5005397;28;20587;-80
2022/04/02 02:50:31;;;;;;;0.20;0.20;;;;;;;;;;5004064;28;20501;-78
2022/04/02 02:52:57;;;;;;;0.10;0.10;;;;;;;;;;5004007;28;20021;-78
2022/04/02 02:55:23;;;;;;;0.45;0.45;;;;;;;;;;5002898;28;20026;-79
2022/04/02 02:57:49;;;;;;;0.10;0.10;;;;;;;;;;5004036;28;20026;-78
2022/04/02 03:00:16;;;;;;;0.10;0.10;;;;;;;;;;5003949;28;20518;-79
2022/04/02 03:02:42;;;;;;;;;;;;;;;;;;5005014;28;20612;-78
2022/04/02 03:05:13;;;;;;;0.47;0.47;;;;;;;;;;5002871;28;19917;-78
2022/04/02 03:07:41;;;;;;;0.73;0.73;;;;;;;;;;4998339;28;20052;-77
2022/04/02 03:10:08;;;;;;;0.10;0.10;;;;;;;;;;5004033;28;20022;-77
2022/04/02 03:12:34;;;;;;;0.40;0.40;;;;;;;;;;5004252;28;20037;-77
2022/04/02 03:15:01;;;;;;;1.45;0.95;;;;;;;;;;5003999;28;20064;-77
2022/04/02 03:17:29;;;;;;;0.10;0.10;;;;;;;;;;5003808;28;20193;-77
2022/04/02 03:19:55;;;;;;;0.60;0.60;;;;;;;;;;5003349;28;20517;-76
2022/04/02 03:22:21;;;;;;;0.10;0.10;;;;;;;;;;5002767;28;20057;-77
2022/04/02 03:24:48;;;;;;;0.38;0.38;;;;;;;;;;5002173;28;20128;-76
2022/04/02 03:27:14;;;;;;;0.30;0.30;;;;;;;;;;5003761;28;20414;-78
2022/04/02 03:29:40;;;;;;;1.95;1.23;;;;;;;;;;5003809;28;20865;-78
2022/04/02 03:32:06;;;;;;;0.47;0.47;;;;;;;;;;5002912;28;20026;-77
2022/04/02 03:34:32;;;;;;;0.10;0.10;;;;;;;;;;5002710;28;20034;-78
2022/04/02 03:36:58;;;;;;;0.28;0.28;;;;;;;;;;5002855;28;20034;-78
2022/04/02 03:39:24;;;;;;;0.20;0.20;;;;;;;;;;5003806;28;20038;-77
2022/04/02 03:41:53;;;;;;;1.17;1.13;;;;;;;;;;5003136;28;20046;-77
2022/04/02 03:44:19;;;;;;;2.53;2.00;;;;;;;;;;5003508;28;20030;-78
2022/04/02 03:49:30;;;;;;;0.20;0.20;;;;;;;;;;5002903;28;21027;-77
2022/04/02 03:51:56;;;;;;;1.63;1.20;;;;;;;;;;5001730;28;20030;-76
2022/04/02 03:54:22;;;;;;;0.20;0.20;;;;;;;;;;5004033;28;20030;-76
2022/04/02 03:56:49;;;;;;;0.25;0.25;;;;;;;;;;5002575;28;20428;-77
2022/04/02 03:59:15;;;;;;;0.47;0.47;;;;;;;;;;5002540;28;20128;-77
2022/04/02 04:01:41;;;;;;;0.20;0.20;;;;;;;;;;5002528;28;20328;-77
2022/04/02 04:04:07;;;;;;;0.17;0.17;;;;;;;;;;4993986;28;20600;-78
2022/04/02 04:06:33;;;;;;;0.10;0.10;;;;;;;;;;5000346;28;20038;-78
2022/04/02 04:08:59;;;;;;;0.10;0.10;;;;;;;;;;5002371;28;20210;-81
2022/04/02 04:11:26;;;;;;;0.20;0.20;;;;;;;;;;5003570;28;20029;-80
2022/04/02 04:13:52;;;;;;;;;;;;;;;;;;5003564;28;20033;-77
2022/04/02 04:16:18;;;;;;;0.30;0.30;;;;;;;;;;5001682;28;20373;-77
2022/04/02 04:18:44;;;;;;;0.28;0.28;;;;;;;;;;5002528;28;20064;-78
2022/04/02 04:21:14;;;;;;;0.10;0.10;;;;;;;;;;5003019;28;20069;-78
2022/04/02 04:23:40;;;;;;;0.17;0.17;;;;;;;;;;4985087;28;20029;-80
2022/04/02 04:26:06;;;;;;;0.75;0.75;;;;;;;;;;5002234;28;20048;-80
2022/04/02 04:28:32;;;;;;;1.00;0.87;;;;;;;;;;4981599;28;20031;-80
2022/04/02 04:30:59;;;;;;;1.63;1.47;;;;;;;;;;5002269;28;20041;-80
2022/04/02 04:33:25;;;;;;;0.35;0.35;;;;;;;;;;5003103;28;20029;-80
2022/04/02 04:35:51;;;;;;;0.73;0.73;;;;;;;;;;5002186;28;20042;-81
2022/04/02 04:38:17;;;;;;;0.20;0.20;;;;;;;;;;5002836;28;20026;-81
2022/04/02 04:40:43;;;;;;;0.10;0.10;;;;;;;;;;5002602;28;20049;-80
2022/04/02 04:43:09;;;;;;;0.10;0.10;;;;;;;;;;5003166;28;20121;-81
2022/04/02 04:45:35;;;;;;;0.70;0.70;;;;;;;;;;5002487;28;20046;-81
2022/04/02 04:48:01;;;;;;;0.30;0.30;;;;;;;;;;5003634;28;20034;-80
2022/04/02 04:50:27;;;;;;;0.30;0.30;;;;;;;;;;5002654;28;20034;-80
2022/04/02 04:52:53;;;;;;;0.40;0.40;;;;;;;;;;5002109;28;20103;-80
2022/04/02 04:55:19;;;;;;;0.10;0.10;;;;;;;;;;5003296;28;20341;-80
2022/04/02 04:57:45;;;;;;;0.10;0.10;;;;;;;;;;5001681;28;20355;-80
2022/04/02 05:00:12;;;;;;;0.20;0.20;;;;;;;;;;5002434;28;20054;-79
2022/04/02 05:02:39;;;;;;;0.10;0.10;;;;;;;;;;5001924;28;20176;-79
2022/04/02 05:05:05;;;;;;;0.70;0.70;;;;;;;;;;5001925;28;20049;-78
2022/04/02 05:07:31;;;;;;;0.45;0.45;;;;;;;;;;5001969;28;20026;-78
2022/04/02 05:09:57;;;;;;;0.15;0.15;;;;;;;;;;5002393;28;20036;-79
2022/04/02 05:12:23;;;;;;;0.35;0.35;;;;;;;;;;4999877;28;20030;-77
2022/04/02 05:14:49;;;;;;;0.20;0.20;;;;;;;;;;5001825;28;20033;-77
2022/04/02 05:17:17;;;;;;;3.33;0.87;;;;;;;;;;5001972;28;20092;-77
2022/04/02 05:19:43;;;;;;;0.22;0.22;;;;;;;;;;5001826;28;20087;-77
2022/04/02 05:22:10;;;;;;;0.20;0.20;;;;;;;;;;5001566;28;20030;-77
2022/04/02 05:24:37;;;;;;;2.85;0.75;;;;;;;;;;5001270;28;20034;-76
2022/04/02 05:27:03;;;;;;;0.15;0.15;;;;;;;;;;5002667;28;20042;-77
2022/04/02 05:29:30;;;;;;;0.20;0.20;;;;;;;;;;5005086;28;20026;-76
2022/04/02 05:31:56;;;;;;;0.75;0.75;;;;;;;;;;5005358;28;20037;-76
2022/04/02 05:34:22;;;;;;;0.20;0.20;;;;;;;;;;4998703;28;20072;-77
2022/04/02 05:36:48;;;;;;;0.45;0.45;;;;;;;;;;5005356;28;20026;-77
2022/04/02 05:39:14;;;;;;;0.17;0.17;;;;;;;;;;4998988;28;20861;-78
2022/04/02 05:41:40;;;;;;;1.00;0.85;;;;;;;;;;5000020;28;20513;-77
2022/04/02 05:44:07;;;;;;;0.10;0.10;;;;;;;;;;5003349;28;20034;-78
2022/04/02 05:46:33;;;;;;;0.40;0.40;;;;;;;;;;5005129;28;20038;-76
2022/04/02 05:48:59;;;;;;;1.70;1.08;;;;;;;;;;5006014;28;20568;-75
2022/04/02 05:51:25;;;;;;;0.47;0.47;;;;;;;;;;5005779;28;20084;-78
2022/04/02 05:53:51;;;;;;;0.10;0.10;;;;;;;;;;5005178;28;20034;-80
2022/04/02 05:56:22;;;;;;;1.80;1.70;;;;;;;;;;5005048;28;20073;-79
2022/04/02 05:58:48;;;;;;;0.20;0.20;;;;;;;;;;5004893;28;20123;-80
2022/04/02 06:01:17;;;;;;;0.63;0.63;;;;;;;;;;5004565;28;20030;-79
2022/04/02 06:03:43;;;;;;;0.13;0.13;;;;;;;;;;5004962;28;20038;-79
2022/04/02 06:06:10;;;;;;;0.27;0.27;;;;;;;;;;5003588;28;20143;-79
2022/04/02 06:08:36;;;;;;;0.28;0.28;;;;;;;;;;5005354;28;20032;-80
2022/04/02 06:11:02;;;;;;;0.10;0.10;;;;;;;;;;5004446;28;20038;-79
2022/04/02 06:13:28;;;;;;;0.40;0.40;;;;;;;;;;5000529;28;20148;-81
2022/04/02 06:15:54;;;;;;;0.20;0.20;;;;;;;;;;5004103;28;20076;-79
2022/04/02 06:18:21;;;;;;;0.10;0.10;;;;;;;;;;4998477;28;20029;-83
2022/04/02 06:20:48;;;;;;;0.22;0.22;;;;;;;;;;5005010;28;20581;-84
2022/04/02 06:23:14;;;;;;;0.30;0.30;;;;;;;;;;5005086;28;20033;-84
2022/04/02 06:25:40;;;;;;;2.20;0.75;;;;;;;;;;5003270;28;20049;-83
2022/04/02 06:28:06;;;;;;;0.10;0.10;;;;;;;;;;5004692;28;20017;-83
2022/04/02 06:30:33;;;;;;;0.10;0.10;;;;;;;;;;5004450;28;20525;-84
2022/04/02 06:33:03;;;;;;;0.70;0.70;;;;;;;;;;5004153;28;20033;-83
2022/04/02 06:35:29;;;;;;;0.25;0.25;;;;;;;;;;5004031;28;20073;-82
2022/04/02 06:37:56;;;;;;;0.40;0.40;;;;;;;;;;5004672;28;20032;-75
2022/04/02 06:40:23;;;;;;;0.20;0.20;;;;;;;;;;5003068;28;20029;-77
2022/04/02 06:42:49;;;;;;;;;;;;;;;;;;4995804;28;20666;-76
2022/04/02 06:45:15;;;;;;;0.20;0.20;;;;;;;;;;5004781;28;19921;-76
2022/04/02 06:47:41;;;;;;;0.55;0.55;;;;;;;;;;5003922;28;20042;-79
2022/04/02 06:50:08;;;;;;;0.30;0.30;;;;;;;;;;5004191;28;20026;-78
2022/04/02 06:52:35;;;;;;;0.10;0.10;;;;;;;;;;5003912;28;20121;-79
2022/04/02 06:55:01;;;;;;;0.38;0.38;;;;;;;;;;5003941;28;20042;-78
2022/04/02 06:57:28;;;;;;;0.30;0.30;;;;;;;;;;5004525;28;20028;-81
2022/04/02 06:59:54;;;;;;;0.65;0.65;;;;;;;;;;5004020;28;20122;-79
2022/04/02 07:02:20;;;;;;;0.20;0.20;;;;;;;;;;5003469;28;20026;-86
2022/04/02 07:04:46;;;;;;;0.40;0.40;;;;;;;;;;4997586;28;20537;-84
2022/04/02 07:07:12;;;;;;;0.20;0.20;;;;;;;;;;4995424;28;20545;-86
2022/04/02 07:09:39;;;;;;;0.50;0.50;;;;;;;;;;4999370;28;20641;-88
2022/04/02 07:12:05;;;;;;;0.40;0.40;;;;;;;;;;5003654;28;20449;-86
2022/04/02 07:14:32;;;;;;;0.63;0.63;;;;;;;;;;5003613;28;20026;-88
2022/04/02 07:16:58;;;;;;;0.57;0.57;;;;;;;;;;5005180;28;20042;-86
2022/04/02 07:19:27;;;;;;;0.52;0.52;;;;;;;;;;5006605;28;20022;-87
2022/04/02 07:21:53;;;;;;;0.40;0.40;;;;;;;;;;5005765;28;20045;-87
2022/04/02 07:24:20;;;;;;;0.10;0.10;;;;;;;;;;4999314;28;20034;-86
2022/04/02 07:26:47;;;;;;;0.47;0.47;;;;;;;;;;5005263;28;20571;-85
2022/04/02 07:29:14;;;;;;;0.35;0.35;;;;;;;;;;5006506;28;20066;-88
2022/04/02 07:31:40;;;;;;;4.28;0.60;;;;;;;;;;5002646;28;20052;-83
2022/04/02 07:34:06;;;;;;;0.38;0.38;;;;;;;;;;5002564;28;20061;-83
2022/04/02 07:36:40;;;;;;;0.25;0.25;;;;;;;;;;5003439;28;20037;-84
2022/04/02 07:39:12;;;;;;;0.40;0.40;;;;;;;;;;4990002;28;20946;-83
2022/04/02 07:41:38;;;;;;;0.47;0.47;;;;;;;;;;5003244;28;20057;-80
2022/04/02 07:44:08;;;;;;;1.10;0.82;;;;;;;;;;5003761;28;20028;-84
2022/04/02 07:46:36;;;;;;;0.52;0.52;;;;;;;;;;5002197;28;20409;-83
2022/04/02 07:49:03;;;;;;;5.05;3.05;;;;;;;;;;5004001;28;20053;-83
2022/04/02 07:51:30;;;;;;;0.20;0.20;;;;;;;;;;5003984;28;20490;-84
2022/04/02 07:53:59;;;;;;;0.10;0.10;;;;;;;;;;5003027;28;20025;-82
2022/04/02 07:56:28;;;;;;;0.50;0.50;;;;;;;;;;5002697;28;20502;-81
2022/04/02 07:58:59;;;;;;;0.88;0.88;;;;;;;;;;5002261;28;20498;-84
2022/04/02 08:01:25;;;;;;;0.10;0.10;;;;;;;;;;5001246;28;20032;-81
2022/04/02 08:03:52;;;;;;;0.20;0.20;;;;;;;;;;5001536;28;20111;-84
2022/04/02 08:06:19;;;;;;;0.10;0.10;;;;;;;;;;5008726;28;20041;-81
2022/04/02 08:08:45;;;;;;;;;;;;;;;;;;5000840;28;20030;-84
2022/04/02 08:11:12;;;;;;;0.40;0.40;;;;;;;;;;5003763;28;19954;-86
2022/04/02 08:13:40;;;;;;;0.10;0.10;;;;;;;;;;5003304;28;20040;-85
2022/04/02 08:16:08;;;;;;;0.55;0.55;;;;;;;;;;5001498;28;20132;-85
2022/04/02 08:18:34;;;;;;;0.80;0.57;;;;;;;;;;5003054;28;20024;-86
2022/04/02 08:21:01;;;;;;;0.50;0.50;;;;;;;;;;5003522;28;20421;-86
2022/04/02 08:23:29;;;;;;;0.35;0.35;;;;;;;;;;5002827;28;20139;-85
2022/04/02 08:26:03;;;;;;;0.20;0.20;;;;;;;;;;5003078;28;20042;-86
2022/04/02 08:28:47;;;;;;;0.45;0.45;;;;;;;;;;5001912;28;20025;-86
2022/04/02 08:31:22;;;;;;;0.88;0.88;;;;;;;;;;4988086;28;20029;-85
2022/04/02 08:34:00;;;;;;;0.28;0.28;;;;;;;;;;5002077;28;20444;-86
2022/04/02 08:36:47;;;;;;;0.60;0.47;;;;;;;;;;4999706;28;20026;-86
2022/04/02 08:39:25;;;;;;;1.02;0.47;;;;;;;;;;4942481;29;20060;-86
2022/04/02 08:41:51;;;;;;;1.00;1.00;;;;;;;;;;4944691;28;20065;-86
2022/04/02 08:44:32;;;;;;;9.38;1.67;;;;;;;;;;4944946;28;20042;-86
2022/04/02 08:47:11;;;;;;;0.30;0.30;;;;;;;;;;4943424;28;20857;-86
2022/04/02 08:49:37;;;;;;;0.10;0.10;;;;;;;;;;4943238;28;20988;-85
2022/04/02 08:52:03;;;;;;;0.40;0.40;;;;;;;;;;4945066;28;20027;-86
2022/04/02 08:54:35;;;;;;;0.10;0.10;;;;;;;;;;4943288;29;20030;-86
2022/04/02 08:57:28;;;;;;;0.65;0.65;;;;;;;;;;4949058;28;20051;-86
2022/04/02 09:00:03;;;;;;;1.10;1.08;;;;;;;;;;4933818;28;20148;-86
2022/04/02 09:02:38;;;;;;;2.47;1.77;;;;;;;;;;4940012;28;20031;-86
2022/04/02 09:05:09;;;;;;;0.10;0.10;;;;;;;;;;4946962;28;20459;-86
2022/04/02 09:07:48;;;;;;;0.32;0.32;;;;;;;;;;4948239;28;20041;-85
2022/04/02 09:10:20;;;;;;;0.25;0.25;;;;;;;;;;4945122;29;20117;-85
2022/04/02 09:12:52;;;;;;;1.20;1.20;;;;;;;;;;4931161;28;20151;-85
2022/04/02 09:15:39;;;;;;;0.10;0.10;;;;;;;;;;4949254;28;20578;-84
2022/04/02 09:18:25;;;;;;;2.40;1.27;;;;;;;;;;4998738;28;20394;-85
2022/04/02 09:20:51;;;;;;;0.55;0.55;;;;;;;;;;5006137;28;20038;-85
2022/04/02 09:23:36;;;;;;;0.20;0.20;;;;;;;;;;5006086;28;20584;-85
2022/04/02 09:26:05;;;;;;;0.03;0.03;;;;;;;;;;5007251;28;20584;-85
2022/04/02 09:28:49;;;;;;;0.10;0.10;;;;;;;;;;5006282;28;20033;-83
2022/04/02 09:31:25;;;;;;;0.15;0.15;;;;;;;;;;4990257;28;20821;-84
2022/04/02 09:34:09;;;;;;;0.25;0.25;;;;;;;;;;5006469;28;20041;-84
2022/04/02 09:36:59;;;;;;;0.50;0.50;;;;;;;;;;5003463;28;20137;-85
2022/04/02 09:39:31;;;;;;;5.25;1.42;;;;;;;;;;5007115;28;20065;-85
2022/04/02 09:42:12;;;;;;;0.05;0.05;;;;;;;;;;5004417;28;20088;-85
2022/04/02 09:44:45;;;;;;;3.72;1.77;;;;;;;;;;5004628;28;20034;-85
2022/04/02 09:47:21;;;;;;;0.10;0.10;;;;;;;;;;5006031;28;20743;-86
2022/04/02 09:49:50;;;;;;;0.10;0.10;;;;;;;;;;5004744;28;20105;-86
2022/04/02 09:52:23;;;;;;;0.30;0.30;;;;;;;;;;5005664;28;20048;-86
2022/04/02 09:54:54;;;;;;;0.22;0.22;;;;;;;;;;5002723;28;20036;-85
2022/04/02 09:57:23;;;;;;;0.00;0.00;;;;;;;;;;5004480;28;20040;-86
2022/04/02 10:00:08;;;;;;;0.00;0.00;;;;;;;;;;5004884;28;20048;-87
2022/04/02 10:02:44;;;;;;;0.10;0.10;;;;;;;;;;5003120;28;20742;-87
2022/04/02 10:05:14;;;;;;;5.93;1.75;;;;;;;;;;5003668;28;20041;-86
2022/04/02 10:07:59;;;;;;;0.73;0.73;;;;;;;;;;5005133;28;20856;-86
2022/04/02 10:10:28;;;;;;;0.30;0.30;;;;;;;;;;5000060;28;20026;-86
2022/04/02 10:12:55;;;;;;;0.10;0.10;;;;;;;;;;5004056;28;20038;-86
2022/04/02 10:15:22;;;;;;;0.10;0.10;;;;;;;;;;4993567;28;20442;-86
2022/04/02 10:17:50;;;;;;;;;;;;;;;;;;5001533;28;20041;-86
2022/04/02 10:20:18;;;;;;;0.30;0.30;;;;;;;;;;5002855;28;19941;-85
2022/04/02 10:22:45;;;;;;;0.30;0.30;;;;;;;;;;5005172;28;20497;-85
2022/04/02 10:25:13;;;;;;;0.30;0.30;;;;;;;;;;5005464;28;20445;-85
2022/04/02 10:27:41;;;;;;;0.10;0.10;;;;;;;;;;5003513;28;20068;-85
2022/04/02 10:30:10;;;;;;;0.30;0.30;;;;;;;;;;5005293;28;20917;-86
2022/04/02 10:32:57;;;;;;;0.00;0.00;;;;;;;;;;5004579;28;20033;-83
2022/04/02 10:35:27;;;;;;;1.40;1.20;;;;;;;;;;5001232;28;20520;-85
2022/04/02 10:38:10;;;;;;;0.10;0.10;;;;;;;;;;5004446;28;20030;-84
2022/04/02 10:40:55;;;;;;;0.28;0.28;;;;;;;;;;5004055;28;20045;-83
2022/04/02 10:43:28;;;;;;;0.20;0.20;;;;;;;;;;5005059;28;20038;-84
2022/04/02 10:45:56;;;;;;;0.45;0.45;;;;;;;;;;5003061;28;20413;-83
2022/04/02 10:48:28;;;;;;;0.30;0.30;;;;;;;;;;5000216;28;20113;-84
2022/04/02 10:50:55;;;;;;;2.30;1.55;;;;;;;;;;5002320;28;20089;-84
2022/04/02 10:53:22;;;;;;;0.10;0.10;;;;;;;;;;5004005;28;20030;-83
2022/04/02 10:55:50;;;;;;;0.88;0.88;;;;;;;;;;5009329;28;20438;-83
2022/04/02 10:58:21;;;;;;;0.15;0.15;;;;;;;;;;5004648;28;20022;-83
2022/04/02 11:00:47;;;;;;;0.50;0.30;;;;;;;;;;5004698;28;20026;-83
2022/04/02 11:03:17;;;;;;;0.20;0.20;;;;;;;;;;5004601;28;20030;-83
2022/04/02 11:05:43;;;;;;;0.28;0.28;;;;;;;;;;5004186;28;20041;-84
2022/04/02 11:08:12;;;;;;;0.70;0.70;;;;;;;;;;5004562;28;20034;-83
2022/04/02 11:10:39;;;;;;;0.13;0.13;;;;;;;;;;5004114;28;20563;-83
2022/04/02 11:13:08;;;;;;;0.60;0.45;;;;;;;;;;5004611;28;20112;-84
2022/04/02 11:15:41;;;;;;;0.68;0.32;;;;;;;;;;5004953;28;20030;-84
2022/04/02 11:18:17;;;;;;;0.10;0.10;;;;;;;;;;5009771;28;20033;-83
2022/04/02 11:20:43;;;;;;;1.08;1.08;;;;;;;;;;5005072;28;20038;-83
2022/04/02 11:23:19;;;;;;;0.10;0.10;;;;;;;;;;5004499;28;20040;-83
2022/04/02 11:25:52;;;;;;;0.20;0.20;;;;;;;;;;5000669;28;20395;-83
2022/04/02 11:28:22;;;;;;;0.10;0.10;;;;;;;;;;4999372;28;20053;-84
2022/04/02 11:30:49;;;;;;;0.10;0.10;;;;;;;;;;5003760;28;20092;-84
2022/04/02 11:33:15;;;;;;;;;;;;;;;;;;5002845;28;20037;-83
2022/04/02 11:35:41;;;;;;;0.00;0.00;;;;;;;;;;5003414;28;19913;-84
2022/04/02 11:38:17;;;;;;;0.10;0.10;;;;;;;;;;5002905;28;20064;-84
2022/04/02 11:40:51;;;;;;;0.03;0.03;;;;;;;;;;5002316;28;20117;-84
2022/04/02 11:43:17;;;;;;;0.60;0.60;;;;;;;;;;5000252;28;20317;-84
2022/04/02 11:45:46;;;;;;;0.43;0.43;;;;;;;;;;5002369;28;20412;-83
2022/04/02 11:48:14;;;;;;;1.35;1.17;;;;;;;;;;5001796;28;20036;-84
2022/04/02 11:50:44;;;;;;;0.13;0.13;;;;;;;;;;5002884;28;20033;-83
2022/04/02 11:53:11;;;;;;;0.10;0.10;;;;;;;;;;5002793;28;20040;-85
2022/04/02 11:55:37;;;;;;;0.10;0.10;;;;;;;;;;5002671;28;20022;-83
2022/04/02 11:58:08;;;;;;;0.98;0.73;;;;;;;;;;5002467;28;20033;-84
2022/04/02 12:00:36;;;;;;;0.30;0.30;;;;;;;;;;5001982;28;20030;-84
2022/04/02 12:03:02;;;;;;;0.10;0.10;;;;;;;;;;5001889;28;20038;-83
2022/04/02 12:05:42;;;;;;;0.20;0.20;;;;;;;;;;5002172;28;20544;-83
2022/04/02 12:08:08;;;;;;;0.32;0.32;;;;;;;;;;5002641;28;20176;-82
2022/04/02 12:10:43;;;;;;;9.80;0.43;;;;;;;;;;5000931;28;20104;-82
2022/04/02 12:13:10;;;;;;;0.00;0.00;;;;;;;;;;5003024;28;20030;-82
2022/04/02 12:15:36;;;;;;;0.10;0.10;;;;;;;;;;5002290;28;20034;-82
2022/04/02 12:18:03;;;;;;;0.63;0.63;;;;;;;;;;5001767;28;20493;-82
2022/04/02 12:20:29;;;;;;;;;;;;;;;;;;5003207;28;20040;-81
2022/04/02 12:23:07;;;;;;;0.00;0.00;;;;;;;;;;5002082;28;20309;-82
2022/04/02 12:25:34;;;;;;;0.10;0.10;;;;;;;;;;5002337;28;20041;-82
2022/04/02 12:28:00;;;;;;;0.10;0.10;;;;;;;;;;5000097;28;20088;-82
2022/04/02 12:30:31;;;;;;;0.28;0.28;;;;;;;;;;4998357;28;20033;-82
2022/04/02 12:33:14;;;;;;;0.10;0.10;;;;;;;;;;5002561;28;20758;-83
2022/04/02 12:35:40;;;;;;;0.20;0.20;;;;;;;;;;4999798;28;20041;-83
2022/04/02 12:38:07;;;;;;;0.10;0.10;;;;;;;;;;5003385;28;20899;-82
2022/04/02 12:40:39;;;;;;;0.50;0.50;;;;;;;;;;4996246;28;20913;-82
2022/04/02 12:43:06;;;;;;;0.00;0.00;;;;;;;;;;5005407;28;20559;-82
2022/04/02 12:45:33;;;;;;;0.03;0.03;;;;;;;;;;5010998;28;20493;-82
2022/04/02 12:47:59;;;;;;;0.22;0.22;;;;;;;;;;5006230;28;20493;-82
2022/04/02 12:50:26;;;;;;;0.10;0.10;;;;;;;;;;5004479;28;20037;-82
2022/04/02 12:52:52;;;;;;;0.15;0.15;;;;;;;;;;5000687;28;20036;-82
2022/04/02 12:55:22;;;;;;;0.10;0.10;;;;;;;;;;5006944;28;20033;-83
2022/04/02 12:57:58;;;;;;;0.30;0.30;;;;;;;;;;5006988;28;20124;-82
2022/04/02 13:00:26;;;;;;;0.20;0.20;;;;;;;;;;5007302;28;20018;-83
2022/04/02 13:02:55;;;;;;;0.10;0.10;;;;;;;;;;5006402;28;20038;-81
2022/04/02 13:05:24;;;;;;;0.22;0.15;;;;;;;;;;5006353;28;20044;-83
2022/04/02 13:07:58;;;;;;;0.28;0.28;;;;;;;;;;5006681;28;20042;-86
2022/04/02 13:10:27;;;;;;;0.00;0.00;;;;;;;;;;5006679;28;20113;-86
2022/04/02 13:12:53;;;;;;;0.32;0.32;;;;;;;;;;5006370;28;20034;-84
2022/04/02 13:15:22;;;;;;;0.10;0.10;;;;;;;;;;5006507;28;20076;-84
2022/04/02 13:20:38;;;;;;;0.55;0.55;;;;;;;;;;5003687;28;20041;-84
2022/04/02 13:23:08;;;;;;;0.00;0.00;;;;;;;;;;5006700;28;20038;-84
2022/04/02 13:25:40;;;;;;;0.10;0.10;;;;;;;;;;5006771;28;20025;-85
2022/04/02 13:28:32;;;;;;;0.35;0.35;;;;;;;;;;4994740;28;20026;-84
2022/04/02 13:31:02;;;;;;;0.10;0.10;;;;;;;;;;4946562;28;20053;-84
2022/04/02 13:33:47;;;;;;;0.10;0.10;;;;;;;;;;4945730;28;20047;-85
2022/04/02 13:36:20;;;;;;;0.28;0.28;;;;;;;;;;4945688;28;20114;-84
2022/04/02 13:39:00;;;;;;;0.00;0.00;;;;;;;;;;4936516;28;20047;-84
2022/04/02 13:41:26;;;;;;;0.10;0.10;;;;;;;;;;4945498;28;20089;-83
2022/04/02 13:43:54;;;;;;;0.57;0.52;;;;;;;;;;4940345;28;20487;-83
2022/04/02 13:46:23;;;;;;;2.60;0.52;;;;;;;;;;4935328;28;20045;-84
2022/04/02 13:49:08;;;;;;;0.10;0.10;;;;;;;;;;4936076;28;20074;-84
2022/04/02 13:51:40;;;;;;;0.20;0.20;;;;;;;;;;4932871;29;20642;-83
2022/04/02 13:54:10;;;;;;;0.20;0.20;;;;;;;;;;4944930;28;20102;-84
2022/04/02 13:56:38;;;;;;;0.00;0.00;;;;;;;;;;4943819;28;20046;-83
2022/04/02 13:59:08;;;;;;;0.15;0.15;;;;;;;;;;4939340;28;20058;-83
2022/04/02 14:01:36;;;;;;;2.78;0.68;;;;;;;;;;4937220;28;20075;-84
2022/04/02 14:04:10;;;;;;;0.00;0.00;;;;;;;;;;4932046;28;20770;-83
2022/04/02 14:06:38;;;;;;;0.20;0.20;;;;;;;;;;4925808;28;20043;-83
2022/04/02 14:09:04;;;;;;;0.13;0.13;;;;;;;;;;5004777;28;20064;-83
2022/04/02 14:11:40;;;;;;;0.00;0.00;;;;;;;;;;5003452;28;20034;-84
2022/04/02 14:14:06;;;;;;;0.15;0.15;;;;;;;;;;5004851;28;20363;-83
2022/04/02 14:16:34;;;;;;;0.17;0.17;;;;;;;;;;5004397;28;20030;-83
2022/04/02 14:19:04;;;;;;;0.10;0.10;;;;;;;;;;4992087;28;20041;-83
2022/04/02 14:21:31;;;;;;;0.10;0.10;;;;;;;;;;5004276;28;20030;-84
2022/04/02 14:24:03;;;;;;;0.05;0.05;;;;;;;;;;5004885;28;20854;-84
2022/04/02 14:26:48;;;;;;;0.10;0.10;;;;;;;;;;5002879;28;20120;-83
2022/04/02 14:29:14;;;;;;;0.05;0.05;;;;;;;;;;5004962;28;20108;-82
2022/04/02 14:31:43;;;;;;;0.10;0.10;;;;;;;;;;5004833;28;20129;-83
2022/04/02 14:34:12;;;;;;;0.00;0.00;;;;;;;;;;5004437;28;20034;-83
2022/04/02 14:36:56;;;;;;;0.00;0.00;;;;;;;;;;5005029;28;20026;-82
2022/04/02 14:39:42;;;;;;;0.32;0.32;;;;;;;;;;5005371;28;20030;-83
2022/04/02 14:42:11;;;;;;;0.10;0.10;;;;;;;;;;5002833;28;20129;-81
2022/04/02 14:44:58;;;;;;;0.10;0.10;;;;;;;;;;4996149;28;20057;-83
2022/04/02 14:47:43;;;;;;;5.57;1.27;;;;;;;;;;4997705;28;20048;-84
2022/04/02 14:50:09;;;;;;;0.10;0.10;;;;;;;;;;5002269;28;20033;-83
2022/04/02 14:52:47;;;;;;;0.00;0.00;;;;;;;;;;5002353;28;20037;-84
2022/04/02 14:55:26;;;;;;;0.00;0.00;;;;;;;;;;5001397;28;20041;-84
2022/04/02 14:58:11;;;;;;;0.00;0.00;;;;;;;;;;5001754;28;20062;-86
2022/04/02 15:00:50;;;;;;;0.15;0.15;;;;;;;;;;5000391;28;20041;-86
2022/04/02 15:03:48;;;;;;;0.10;0.10;;;;;;;;;;5002536;28;20119;-86
2022/04/02 15:06:15;;;;;;;0.10;0.10;;;;;;;;;;4977888;28;20058;-84